Aviation Digital Data Service (ADDS)

Output produced by METARs form (0315 UTC 04 December 2020)
found at http://www.aviationweather.gov/metar/data/
 
METAR text: CYKA 040300Z 12007KT 40SM FEW070 BKN170 BKN230 03/M02 A3033 RMK AC1AC4CI2 SLP291
Conditions at: CYKA (KAMLOOPS AIRPORT, BC, CA) observed 0300 UTC 04 December 2020
Temperature: 3.0°C (37°F)
Dewpoint: -2.0°C (28°F) [RH = 70%]
Pressure (altimeter): 30.33 inches Hg (1027.2 mb)
[Sea-level pressure: 1029.1 mb]
Winds: from the ESE (120 degrees) at 8 MPH (7 knots; 3.6 m/s)
Visibility: 40 miles (64 km)
Ceiling: 17000 feet AGL
Clouds: few clouds at 7000 feet AGL
broken clouds at 17000 feet AGL
broken clouds at 23000 feet AGL
Weather: no significant weather observed at this time

METAR text: CYKA 040200Z 08004KT 40SM SCT070 BKN090 BKN160 02/M03 A3032 RMK AC3AC2AC2 SLP287
Conditions at: CYKA (KAMLOOPS AIRPORT, BC, CA) observed 0200 UTC 04 December 2020
Temperature: 2.0°C (36°F)
Dewpoint: -3.0°C (27°F) [RH = 69%]
Pressure (altimeter): 30.32 inches Hg (1026.8 mb)
[Sea-level pressure: 1028.7 mb]
Winds: from the E (80 degrees) at 5 MPH (4 knots; 2.1 m/s)
Visibility: 40 miles (64 km)
Ceiling: 9000 feet AGL
Clouds: scattered clouds at 7000 feet AGL
broken clouds at 9000 feet AGL
broken clouds at 16000 feet AGL
Weather: no significant weather observed at this time

METAR text: CYKA 040100Z 07005KT 060V140 40SM BKN070 BKN130 02/M03 A3034 RMK AC5AC2 SLP293
Conditions at: CYKA (KAMLOOPS AIRPORT, BC, CA) observed 0100 UTC 04 December 2020
Temperature: 2.0°C (36°F)
Dewpoint: -3.0°C (27°F) [RH = 69%]
Pressure (altimeter): 30.34 inches Hg (1027.5 mb)
[Sea-level pressure: 1029.3 mb]
Winds: from the ENE (70 degrees) at 6 MPH (5 knots; 2.6 m/s)
Visibility: 40 miles (64 km)
Ceiling: 7000 feet AGL
Clouds: broken clouds at 7000 feet AGL
broken clouds at 13000 feet AGL
Weather: no significant weather observed at this time

Forecast for: CYKA (KAMLOOPS AIRPORT, BC, CA)
Text: TAF CYKA 040038Z 0401/0413 08006KT P6SM BKN080 BKN200
Forecast period: 0100 to 0400 UTC 04 December 2020
Forecast type: FROM: standard forecast or significant change
Winds: from the E (80 degrees) at 7 MPH (6 knots; 3.1 m/s)
Visibility: 6 or more miles (10+ km)
Ceiling: 8000 feet AGL
Clouds: broken clouds at 8000 feet AGL
broken clouds at 20000 feet AGL
Weather: no significant weather forecast for this period
Text: FM040400 09008KT P6SM SCT100 RMK NXT FCST BY 040700Z
Forecast period: 0400 to 1300 UTC 04 December 2020
Forecast type: FROM: standard forecast or significant change
Winds: from the E (90 degrees) at 9 MPH (8 knots; 4.1 m/s)
Visibility: 6 or more miles (10+ km)
Ceiling: at least 12,000 feet AGL
Clouds: scattered clouds at 10000 feet AGL
Weather: no significant weather forecast for this period